Time;durP1;ratioP1;P1;durP2;ratioP2;P2;SDS_P1;SDS_P2;PMS_P1;PMS_P2;Temp;Humidity;BMP_temperature;BMP_pressure;BME280_temperature;BME280_humidity;BME280_pressure;Samples;Min_cycle;Max_cycle;Signal;HPM_P1;HPM_P2
2022/08/01 00:00:42;;;;;;;;;1.00;1.00;;;;;23.77;52.50;101112.69;5019896;28;45747;-80
2022/08/01 00:03:08;;;;;;;;;1.00;1.00;;;;;23.84;52.24;101121.66;5019975;28;45783;-81
2022/08/01 00:05:33;;;;;;;;;2.00;2.00;;;;;23.71;52.55;101107.22;5020118;28;45745;-80
2022/08/01 00:07:59;;;;;;;;;1.00;1.00;;;;;23.82;52.24;101129.03;5020283;28;46485;-81
2022/08/01 00:10:24;;;;;;;;;1.00;0.00;;;;;23.79;52.64;101129.41;5020235;28;46461;-81
2022/08/01 00:12:49;;;;;;;;;1.75;1.75;;;;;23.74;52.48;101122.94;5020575;28;45536;-81
2022/08/01 00:15:16;;;;;;;;;1.00;1.00;;;;;23.78;53.12;101121.56;5020179;28;45672;-80
2022/08/01 00:17:43;;;;;;;;;0.00;0.00;;;;;23.73;52.72;101116.75;5001815;28;47374;-79
2022/08/01 00:20:10;;;;;;;;;0.00;0.00;;;;;23.67;52.62;101109.44;4997739;28;47348;-81
2022/08/01 00:25:58;;;;;;;;;1.00;1.00;;;;;23.63;52.92;101101.97;5016242;28;45626;-79
2022/08/01 00:28:23;;;;;;;;;1.00;1.00;;;;;23.69;52.80;101109.28;5016615;28;45559;-80
2022/08/01 00:30:48;;;;;;;;;1.00;1.00;;;;;23.53;53.06;101086.19;5016449;28;45722;-80
2022/08/01 00:33:14;;;;;;;;;1.00;1.00;;;;;23.53;53.60;101094.22;5016330;28;45652;-80
2022/08/01 00:35:39;;;;;;;;;2.00;1.00;;;;;23.58;52.94;101101.69;5016496;28;45561;-79
2022/08/01 00:38:04;;;;;;;;;1.00;1.00;;;;;23.54;53.11;101095.84;4998263;28;48516;-79
2022/08/01 00:40:30;;;;;;;;;0.00;0.00;;;;;23.56;53.19;101090.31;5016199;28;45764;-80
2022/08/01 00:42:55;;;;;;;;;2.00;1.00;;;;;23.55;52.87;101083.31;5016157;28;45586;-80
2022/08/01 00:45:20;;;;;;;;;1.00;1.00;;;;;23.62;52.85;101087.75;5016456;28;45540;-80
2022/08/01 00:47:46;;;;;;;;;1.00;1.00;;;;;23.61;53.16;101087.94;4998195;28;48184;-80
2022/08/01 00:50:12;;;;;;;;;1.00;1.00;;;;;23.69;53.12;101090.53;4998091;28;47860;-80
2022/08/01 00:55:59;;;;;;;;;0.25;0.25;;;;;23.73;53.17;101100.69;5015887;28;45587;-79
2022/08/01 00:58:25;;;;;;;;;0.25;0.00;;;;;23.64;53.38;101079.56;5015968;28;45627;-80
2022/08/01 01:00:50;;;;;;;;;1.25;1.00;;;;;23.75;53.09;101097.84;5016044;28;46156;-80
2022/08/01 01:03:16;;;;;;;;;2.00;0.50;;;;;23.75;53.06;101093.28;5015826;28;45587;-80
2022/08/01 01:12:59;;;;;;;;;1.00;1.00;;;;;23.66;53.00;101083.69;4995885;28;46179;-80
2022/08/01 01:15:36;;;;;;;;;1.00;1.00;;;;;23.69;53.32;101085.19;4995966;28;45653;-80
2022/08/01 01:18:08;;;;;;;;;1.00;1.00;;;;;23.61;52.83;101079.91;4996268;28;45676;-80
2022/08/01 01:20:40;;;;;;;;;0.50;0.50;;;;;23.66;53.29;101090.88;4995842;28;46528;-80
2022/08/01 01:26:37;;;;;;;;;0.00;0.00;;;;;23.57;53.43;101084.78;4995544;28;45579;-80
2022/08/01 01:29:26;;;;;;;;;0.00;0.00;;;;;23.48;53.35;101063.66;4996052;28;45698;-80
2022/08/01 01:32:22;;;;;;;;;1.00;0.75;;;;;23.55;53.07;101080.63;4995294;28;46690;-80
2022/08/01 01:34:50;;;;;;;;;1.00;0.75;;;;;23.58;53.51;101096.34;4993412;28;45815;-80
2022/08/01 01:37:21;;;;;;;;;1.00;0.00;;;;;23.46;53.26;101079.03;4995422;28;45775;-80
2022/08/01 01:39:50;;;;;;;;;1.00;0.00;;;;;23.52;53.78;101078.31;4995980;28;45636;-80
2022/08/01 01:42:17;;;;;;;;;2.00;1.00;;;;;23.50;53.56;101075.81;4995554;28;45691;-80
2022/08/01 01:44:45;;;;;;;;;0.00;0.00;;;;;23.55;53.38;101088.66;4995325;28;46326;-80
2022/08/01 01:47:16;;;;;;;;;1.00;0.50;;;;;23.53;53.89;101088.03;4977667;28;46126;-80
2022/08/01 01:49:43;;;;;;;;;0.75;0.00;;;;;23.39;53.54;101069.03;4995871;28;45583;-81
2022/08/01 01:52:11;;;;;;;;;1.00;1.00;;;;;23.47;53.71;101081.56;4977493;28;47519;-81
2022/08/01 01:54:42;;;;;;;;;1.00;0.00;;;;;23.44;54.03;101080.03;4995272;28;45563;-80
2022/08/01 01:57:11;;;;;;;;;2.00;1.00;;;;;23.38;54.37;101070.03;4995389;28;45646;-79
2022/08/01 01:59:39;;;;;;;;;0.00;0.00;;;;;23.43;53.61;101074.84;4995493;28;45751;-79
2022/08/01 02:02:06;;;;;;;;;1.25;0.50;;;;;23.45;53.78;101078.19;4995189;28;46725;-79
2022/08/01 02:04:35;;;;;;;;;0.50;0.00;;;;;23.42;54.17;101063.34;4994834;28;46399;-80
2022/08/01 02:07:01;;;;;;;;;1.00;1.00;;;;;23.49;54.16;101070.66;4995182;28;45701;-80
2022/08/01 02:09:28;;;;;;;;;0.25;0.25;;;;;23.53;53.79;101077.31;4995284;28;45654;-79
2022/08/01 02:11:56;;;;;;;;;1.50;1.00;;;;;23.46;53.81;101065.69;5008733;28;46578;-80
2022/08/01 02:14:23;;;;;;;;;1.00;1.00;;;;;23.51;54.14;101079.34;5015031;28;45922;-80
2022/08/01 02:16:50;;;;;;;;;1.75;1.00;;;;;23.43;54.19;101058.78;5015163;28;45617;-80
2022/08/01 02:19:19;;;;;;;;;1.00;1.00;;;;;23.43;53.79;101069.50;5015550;28;45574;-79
2022/08/01 02:22:19;;;;;;;;;1.00;1.00;;;;;23.51;54.12;101077.50;5015076;28;45838;-79
2022/08/01 02:25:26;;;;;;;;;1.00;1.00;;;;;23.51;54.46;101071.31;5015426;28;45683;-80
2022/08/01 02:28:04;;;;;;;;;0.00;0.00;;;;;23.52;54.56;101078.31;4935342;28;45569;-80
2022/08/01 02:30:35;;;;;;;;;0.50;0.00;;;;;23.45;54.10;101072.84;4936206;28;45812;-79
2022/08/01 02:33:09;;;;;;;;;0.00;0.00;;;;;23.42;54.38;101068.69;4934497;28;45546;-79
2022/08/01 02:35:38;;;;;;;;;0.00;0.00;;;;;23.39;54.26;101057.50;4934547;28;46428;-80
2022/08/01 02:38:09;;;;;;;;;1.00;1.00;;;;;23.47;54.59;101073.53;4934432;28;45672;-80
2022/08/01 02:40:38;;;;;;;;;0.25;0.25;;;;;23.45;55.03;101080.84;4935484;28;45577;-79
2022/08/01 02:43:05;;;;;;;;;1.00;1.00;;;;;23.41;54.83;101074.22;4933500;28;47626;-80
2022/08/01 02:45:32;;;;;;;;;1.00;1.00;;;;;23.40;54.59;101075.22;4934421;28;45869;-80
2022/08/01 02:48:05;;;;;;;;;1.00;1.00;;;;;23.32;54.82;101073.44;4935144;28;45728;-80
2022/08/01 02:50:33;;;;;;;;;0.00;0.00;;;;;23.37;54.59;101076.41;4937020;28;45986;-80
2022/08/01 02:53:00;;;;;;;;;0.00;0.00;;;;;23.36;54.80;101077.44;4940226;28;45917;-79
2022/08/01 02:55:26;;;;;;;;;0.75;0.00;;;;;23.30;55.35;101064.78;4941687;28;48079;-81
2022/08/01 02:57:54;;;;;;;;;0.25;0.25;;;;;23.26;55.05;101060.81;4941997;28;45730;-81
2022/08/01 03:00:20;;;;;;;;;1.25;1.00;;;;;23.31;55.30;101074.47;4942414;28;45702;-80
2022/08/01 03:02:50;;;;;;;;;0.00;0.00;;;;;23.26;54.84;101065.31;4942132;28;45689;-79
2022/08/01 03:05:17;;;;;;;;;2.00;1.00;;;;;23.20;55.42;101058.84;5015317;28;45955;-81
2022/08/01 03:07:43;;;;;;;;;1.00;1.00;;;;;23.19;55.39;101059.88;5022577;28;45538;-81
2022/08/01 03:10:10;;;;;;;;;0.75;0.75;;;;;23.23;55.20;101066.50;5003793;28;45657;-80
2022/08/01 03:12:39;;;;;;;;;0.00;0.00;;;;;23.22;55.95;101072.84;5021914;28;45660;-81
2022/08/01 03:15:05;;;;;;;;;0.00;0.00;;;;;23.17;56.05;101061.88;5022408;28;46422;-79
2022/08/01 03:17:32;;;;;;;;;0.50;0.50;;;;;23.15;56.09;101057.72;5022454;28;45533;-79
2022/08/01 03:20:02;;;;;;;;;1.00;1.00;;;;;23.18;55.72;101068.88;5021720;28;45608;-81
2022/08/01 03:22:30;;;;;;;;;0.75;0.75;;;;;23.13;55.63;101067.75;5021927;28;46356;-81
2022/08/01 03:24:59;;;;;;;;;0.50;0.00;;;;;23.23;55.80;101068.34;5004046;28;47730;-81
2022/08/01 03:27:25;;;;;;;;;1.00;1.00;;;;;23.18;55.53;101073.41;5001600;28;45626;-81
2022/08/01 03:29:54;;;;;;;;;1.00;1.00;;;;;23.20;55.70;101068.72;5018976;28;45656;-81
2022/08/01 03:32:21;;;;;;;;;1.00;1.00;;;;;23.13;55.95;101068.59;4999453;28;47856;-81
2022/08/01 03:34:47;;;;;;;;;1.00;1.00;;;;;23.21;56.25;101081.06;4998875;28;47281;-81
2022/08/01 03:37:44;;;;;;;;;0.50;0.50;;;;;23.16;56.29;101081.59;5014891;28;45604;-80
2022/08/01 03:40:17;;;;;;;;;1.00;1.00;;;;;23.02;56.82;101074.34;4914883;28;46015;-81
2022/08/01 03:42:49;;;;;;;;;0.00;0.00;;;;;23.03;56.75;101084.03;4897890;28;49091;-81
2022/08/01 03:45:27;;;;;;;;;1.00;1.00;;;;;23.00;56.85;101081.72;4914219;28;46294;-81
2022/08/01 03:48:00;;;;;;;;;1.00;1.00;;;;;22.98;56.85;101081.06;4914428;28;45700;-81
2022/08/01 03:50:28;;;;;;;;;2.00;1.00;;;;;23.01;57.42;101084.22;4914561;28;45619;-81
2022/08/01 03:52:56;;;;;;;;;1.50;1.00;;;;;23.04;56.94;101087.56;4914529;28;45531;-81
2022/08/01 03:55:23;;;;;;;;;1.00;1.00;;;;;22.96;56.97;101069.72;4917322;28;45957;-80
2022/08/01 03:57:50;;;;;;;;;1.00;1.00;;;;;22.96;56.83;101078.56;4918510;28;45869;-80
2022/08/01 04:00:18;;;;;;;;;1.00;0.00;;;;;23.01;56.93;101080.72;4918968;28;45596;-81
2022/08/01 04:02:45;;;;;;;;;1.00;1.00;;;;;22.95;57.30;101071.56;4917697;28;45823;-79
2022/08/01 04:05:11;;;;;;;;;0.00;0.00;;;;;22.98;57.06;101070.38;4917362;28;46065;-80
2022/08/01 04:07:38;;;;;;;;;0.75;0.00;;;;;22.95;57.09;101070.72;4917468;28;45730;-80
2022/08/01 04:10:05;;;;;;;;;0.00;0.00;;;;;22.97;56.58;101074.91;4917512;28;45774;-82
2022/08/01 04:12:30;;;;;;;;;1.00;1.00;;;;;22.95;57.06;101071.56;4916583;28;46779;-81
2022/08/01 04:14:56;;;;;;;;;0.50;0.50;;;;;22.95;56.67;101070.72;4917053;28;45659;-82
2022/08/01 04:17:21;;;;;;;;;1.00;1.00;;;;;22.96;57.08;101065.22;5001427;28;45528;-81
2022/08/01 04:19:47;;;;;;;;;1.25;0.25;;;;;22.92;56.54;101055.91;5017087;28;45429;-79
2022/08/01 04:22:14;;;;;;;;;1.00;0.00;;;;;23.00;56.85;101071.84;5017514;28;45489;-80
2022/08/01 04:28:03;;;;;;;;;0.50;0.00;;;;;23.01;56.68;101070.00;5025253;28;45938;-80
2022/08/01 04:30:33;;;;;;;;;0.50;0.50;;;;;23.01;57.16;101056.66;5024562;28;45597;-80
2022/08/01 04:33:01;;;;;;;;;0.00;0.00;;;;;22.95;56.63;101044.84;5018524;28;45469;-80
2022/08/01 04:35:27;;;;;;;;;0.25;0.00;;;;;23.07;56.84;101055.09;5017772;28;45771;-80
2022/08/01 04:37:54;;;;;;;;;0.50;0.50;;;;;23.00;56.77;101055.81;5016824;28;45514;-80
2022/08/01 04:40:21;;;;;;;;;0.25;0.00;;;;;23.05;56.73;101065.97;5016646;28;45567;-80
2022/08/01 04:42:48;;;;;;;;;0.25;0.25;;;;;23.01;57.32;101060.16;5016303;28;45813;-81
2022/08/01 04:45:15;;;;;;;;;0.00;0.00;;;;;22.96;57.07;101059.88;5016124;28;45802;-80
2022/08/01 04:47:42;;;;;;;;;0.75;0.00;;;;;22.83;56.81;101050.78;5016510;28;45693;-80
2022/08/01 04:50:10;;;;;;;;;0.00;0.00;;;;;22.88;57.20;101065.28;4998430;28;45908;-80
2022/08/01 04:52:36;;;;;;;;;2.00;1.00;;;;;22.83;57.55;101074.84;5016045;28;45682;-79
2022/08/01 04:58:23;;;;;;;;;1.00;1.00;;;;;22.70;57.82;101064.69;5015933;28;45542;-80
2022/08/01 05:00:49;;;;;;;;;1.50;1.00;;;;;22.73;58.15;101075.03;5016271;28;45868;-80
2022/08/01 05:03:14;;;;;;;;;1.00;0.75;;;;;22.67;58.01;101074.91;5016174;28;46779;-82
2022/08/01 05:05:40;;;;;;;;;1.75;1.00;;;;;22.58;58.19;101064.25;5015120;28;45588;-81
2022/08/01 05:08:05;;;;;;;;;2.00;2.00;;;;;22.63;58.03;101084.25;4997845;28;45933;-80
2022/08/01 05:10:31;;;;;;;;;1.00;0.25;;;;;22.60;58.31;101086.28;5015904;28;45776;-80
2022/08/01 05:12:57;;;;;;;;;1.00;1.00;;;;;22.54;58.16;101076.31;5015645;28;45657;-81
2022/08/01 05:15:23;;;;;;;;;1.00;1.00;;;;;22.58;58.77;101090.97;4997655;28;48534;-80
2022/08/01 05:17:48;;;;;;;;;0.00;0.00;;;;;22.62;57.88;101093.31;5015870;28;45638;-80
2022/08/01 05:20:14;;;;;;;;;1.00;1.00;;;;;22.64;57.87;101091.28;5016307;28;45867;-80
2022/08/01 05:22:39;;;;;;;;;2.00;1.00;;;;;22.65;57.90;101099.13;5015521;28;46836;-80
2022/08/01 05:28:26;;;;;;;;;1.75;1.00;;;;;22.63;57.90;101092.28;5015583;28;45702;-80
2022/08/01 05:30:54;;;;;;;;;0.00;0.00;;;;;22.62;58.62;101094.13;4997849;28;46082;-80
2022/08/01 05:33:21;;;;;;;;;1.00;1.00;;;;;22.58;58.07;101087.47;4997364;28;47511;-80
2022/08/01 05:35:46;;;;;;;;;1.75;1.00;;;;;22.68;58.30;101092.56;5015356;28;45820;-80
2022/08/01 05:38:12;;;;;;;;;1.00;1.00;;;;;22.65;58.08;101087.59;5015518;28;45541;-80
2022/08/01 05:43:59;;;;;;;;;1.00;1.00;;;;;22.64;57.84;101081.41;5014809;28;45794;-80
2022/08/01 05:46:25;;;;;;;;;0.25;0.25;;;;;22.60;57.84;101082.78;5015165;28;45805;-80
2022/08/01 05:48:50;;;;;;;;;1.00;1.00;;;;;22.57;57.85;101088.47;5015311;28;45594;-80
2022/08/01 05:51:16;;;;;;;;;1.00;0.75;;;;;22.56;58.10;101078.81;5015480;28;45857;-79
2022/08/01 05:53:41;;;;;;;;;1.00;0.00;;;;;22.60;57.73;101098.81;5015277;28;45579;-81
2022/08/01 05:56:07;;;;;;;;;0.00;0.00;;;;;22.64;57.84;101096.63;5014717;28;45548;-80
2022/08/01 05:58:32;;;;;;;;;1.75;1.00;;;;;22.60;58.18;101098.81;5014660;28;45602;-80
2022/08/01 06:00:58;;;;;;;;;1.50;1.00;;;;;22.62;57.74;101098.66;5014521;28;45496;-79
2022/08/01 06:03:23;;;;;;;;;0.00;0.00;;;;;22.71;57.60;101109.16;5014508;28;46536;-85
2022/08/01 06:05:51;;;;;;;;;1.25;0.75;;;;;22.69;58.09;101115.63;5014426;28;46436;-80
2022/08/01 06:08:17;;;;;;;;;2.00;1.00;;;;;22.58;58.25;101107.00;5014623;28;45662;-82
2022/08/01 06:14:18;;;;;;;;;0.25;0.25;;;;;22.55;57.96;101112.69;5012251;28;45969;-82
2022/08/01 06:16:43;;;;;;;;;0.00;0.00;;;;;22.40;58.28;101102.94;5013340;28;45670;-84
2022/08/01 06:19:08;;;;;;;;;1.00;1.00;;;;;22.46;58.33;101110.22;4995810;28;45659;-82
2022/08/01 06:21:34;;;;;;;;;0.50;0.50;;;;;22.39;58.35;101096.75;5014814;28;45467;-81
2022/08/01 06:23:59;;;;;;;;;0.00;0.00;;;;;22.43;58.48;101111.41;5014162;28;46972;-81
2022/08/01 06:26:24;;;;;;;;;0.75;0.00;;;;;22.40;58.54;101114.41;5014892;28;45635;-82
2022/08/01 06:28:50;;;;;;;;;1.00;1.00;;;;;22.38;58.02;101096.91;5015581;28;45535;-80
2022/08/01 06:31:15;;;;;;;;;0.00;0.00;;;;;22.47;57.96;101112.72;5015581;28;45806;-80
2022/08/01 06:33:41;;;;;;;;;1.00;1.00;;;;;22.44;58.46;101106.91;5015934;28;45560;-79
2022/08/01 06:36:06;;;;;;;;;1.75;1.00;;;;;22.40;58.47;101103.72;5015090;28;45741;-80
2022/08/01 06:38:31;;;;;;;;;1.00;1.00;;;;;22.50;58.81;101119.56;5016265;28;45949;-80
2022/08/01 06:44:19;;;;;;;;;1.50;1.50;;;;;22.48;58.55;101111.72;5015729;28;45537;-80
2022/08/01 06:46:45;;;;;;;;;1.25;1.25;;;;;22.43;58.56;101106.06;5015361;28;45742;-82
2022/08/01 06:49:10;;;;;;;;;0.00;0.00;;;;;22.47;58.12;101111.88;5016845;28;45534;-80
2022/08/01 06:51:35;;;;;;;;;2.00;2.00;;;;;22.49;58.09;101117.91;5015838;28;45509;-83
2022/08/01 06:54:01;;;;;;;;;1.00;0.75;;;;;22.50;58.11;101111.56;5014751;28;45598;-82
2022/08/01 06:59:49;;;;;;;;;1.00;1.00;;;;;22.53;58.32;101111.19;5016617;28;45696;-79
2022/08/01 07:02:14;;;;;;;;;1.00;1.00;;;;;22.55;58.38;101112.69;5015277;28;45425;-80
2022/08/01 07:04:40;;;;;;;;;1.25;1.00;;;;;22.59;57.96;101106.00;5015514;28;46453;-81
2022/08/01 07:07:05;;;;;;;;;1.00;1.00;;;;;22.66;58.15;101106.13;5015329;28;46210;-81
2022/08/01 07:09:31;;;;;;;;;1.00;1.00;;;;;22.66;58.01;101107.97;5015128;28;45448;-82
2022/08/01 07:11:56;;;;;;;;;1.00;1.00;;;;;22.72;57.74;101104.63;5014399;28;45555;-82
2022/08/01 07:14:23;;;;;;;;;1.50;1.50;;;;;22.76;57.63;101113.97;5013600;28;46546;-79
2022/08/01 07:16:49;;;;;;;;;1.50;1.00;;;;;22.87;57.29;101118.91;5014527;28;46359;-78
2022/08/01 07:19:15;;;;;;;;;1.75;1.75;;;;;22.84;57.75;101103.19;4996807;28;45904;-81
2022/08/01 07:21:41;;;;;;;;;2.00;2.00;;;;;22.97;57.58;101114.16;5015119;28;45619;-79
2022/08/01 07:24:08;;;;;;;;;1.00;1.00;;;;;23.05;57.39;101113.28;5013697;28;46445;-79
2022/08/01 07:29:55;;;;;;;;;1.00;1.00;;;;;23.14;56.96;101122.91;5016239;28;45626;-79
2022/08/01 07:32:20;;;;;;;;;1.50;1.00;;;;;23.10;56.60;101100.22;5017542;28;45674;-78
2022/08/01 07:34:46;;;;;;;;;1.25;1.25;;;;;23.22;57.05;101115.63;5017010;28;46583;-77
2022/08/01 07:37:11;;;;;;;;;2.00;2.00;;;;;23.28;56.12;101124.78;5017380;28;45480;-78
2022/08/01 07:39:36;;;;;;;;;1.00;1.00;;;;;23.29;56.24;101124.63;4998860;28;45661;-78
2022/08/01 07:42:02;;;;;;;;;2.00;2.00;;;;;23.25;56.44;101114.47;4998674;28;45551;-78
2022/08/01 07:44:27;;;;;;;;;1.75;1.75;;;;;23.27;55.94;101118.59;4998598;28;47596;-79
2022/08/01 07:46:53;;;;;;;;;3.00;2.75;;;;;23.24;55.97;101124.31;5016836;28;45617;-81
2022/08/01 07:49:18;;;;;;;;;2.00;2.00;;;;;23.33;55.77;101141.97;5016808;28;45645;-79
2022/08/01 07:51:44;;;;;;;;;2.00;2.00;;;;;23.28;55.60;101127.47;5016813;28;45592;-81
2022/08/01 07:54:09;;;;;;;;;3.75;3.25;;;;;23.21;56.44;101129.22;5016142;28;45719;-79
2022/08/01 07:59:56;;;;;;;;;2.25;2.25;;;;;23.24;55.67;101140.38;5016068;28;45685;-81
2022/08/01 08:02:21;;;;;;;;;2.00;2.00;;;;;23.23;55.55;101146.72;5016464;28;45880;-80
2022/08/01 08:04:47;;;;;;;;;3.00;2.00;;;;;23.14;56.19;101139.78;5016113;28;45535;-79
2022/08/01 08:07:12;;;;;;;;;3.25;3.25;;;;;23.20;56.21;101154.28;5016214;28;46293;-80
2022/08/01 08:09:38;;;;;;;;;2.00;2.00;;;;;23.15;56.15;101138.78;5016292;28;45535;-79
2022/08/01 08:12:04;;;;;;;;;1.25;1.25;;;;;23.21;56.02;101147.94;5016452;28;45895;-79
2022/08/01 08:14:29;;;;;;;;;4.00;3.00;;;;;23.12;56.25;101135.59;4998072;28;46784;-81
2022/08/01 08:16:55;;;;;;;;;2.00;2.00;;;;;23.16;55.89;101140.41;5018430;28;45703;-79
2022/08/01 08:19:20;;;;;;;;;2.00;2.00;;;;;23.15;56.41;101143.28;5017705;28;45487;-81
2022/08/01 08:21:45;;;;;;;;;3.00;2.50;;;;;23.16;56.12;101140.41;5018245;28;45782;-80
2022/08/01 08:24:19;;;;;;;;;4.50;3.00;;;;;23.19;56.10;101131.22;5018722;28;45631;-80
2022/08/01 08:30:07;;;;;;;;;3.50;3.00;;;;;23.43;55.71;101141.72;5017915;28;45821;-80
2022/08/01 08:32:34;;;;;;;;;5.00;4.00;;;;;23.50;55.42;101148.06;4998920;28;45624;-80
2022/08/01 08:35:00;;;;;;;;;3.50;3.00;;;;;23.51;55.79;101143.53;5017820;28;45849;-77
2022/08/01 08:37:25;;;;;;;;;6.00;5.00;;;;;23.51;54.94;101143.53;5016128;28;45627;-80
2022/08/01 08:39:50;;;;;;;;;4.00;4.00;;;;;23.54;55.18;101133.28;5015441;28;45621;-80
2022/08/01 08:42:16;;;;;;;;;3.00;3.00;;;;;23.56;54.77;101117.06;5015971;28;45965;-81
2022/08/01 08:44:42;;;;;;;;;3.00;2.25;;;;;23.72;54.78;101132.97;5015897;28;46585;-83
2022/08/01 08:47:11;;;;;;;;;3.00;3.00;;;;;23.77;54.83;101127.91;5016411;28;45634;-80
2022/08/01 08:49:37;;;;;;;;;3.50;3.50;;;;;23.75;54.80;101108.53;5016044;28;45692;-84
2022/08/01 08:52:04;;;;;;;;;2.25;2.25;;;;;23.89;54.39;101112.25;5018635;28;45684;-84
2022/08/01 08:54:30;;;;;;;;;2.75;2.75;;;;;24.00;54.19;101119.81;5000539;28;47437;-84
2022/08/01 09:00:18;;;;;;;;;2.00;2.00;;;;;24.17;52.82;101121.31;5016823;28;45732;-84
2022/08/01 09:02:46;;;;;;;;;2.75;2.50;;;;;24.20;53.18;101119.13;4998240;28;46106;-83
2022/08/01 09:05:12;;;;;;;;;3.00;1.50;;;;;24.25;52.52;101118.56;5016412;28;45524;-81
2022/08/01 09:07:38;;;;;;;;;2.00;1.25;;;;;24.31;52.76;101116.97;5016165;28;45912;-81
2022/08/01 09:10:04;;;;;;;;;2.00;2.00;;;;;24.30;52.33;101110.78;4997823;28;45695;-83
2022/08/01 09:12:30;;;;;;;;;1.00;1.00;;;;;24.38;52.23;101126.78;5016310;28;45667;-84
2022/08/01 09:14:55;;;;;;;;;2.00;2.00;;;;;24.46;51.64;101129.34;5015351;28;46174;-85
2022/08/01 09:17:21;;;;;;;;;3.00;2.25;;;;;24.47;51.82;101138.22;5016003;28;45754;-81
2022/08/01 09:19:51;;;;;;;;;5.00;2.25;;;;;24.49;51.76;101145.06;5016042;28;45518;-81
2022/08/01 09:22:21;;;;;;;;;2.00;2.00;;;;;24.54;51.47;101137.28;5015883;28;45492;-82
2022/08/01 09:25:00;;;;;;;;;2.50;2.25;;;;;24.56;51.15;101140.59;5015613;28;45580;-80
2022/08/01 09:30:47;;;;;;;;;1.75;1.75;;;;;24.48;51.08;101140.72;5015828;28;45601;-82
2022/08/01 09:33:12;;;;;;;;;1.00;1.00;;;;;24.40;51.03;101135.44;5015798;28;45800;-79
2022/08/01 09:35:38;;;;;;;;;1.75;1.25;;;;;24.40;51.14;101145.34;5015426;28;45588;-83
2022/08/01 09:38:18;;;;;;;;;2.00;2.00;;;;;24.36;50.91;101126.13;5015395;28;45901;-84
2022/08/01 09:40:55;;;;;;;;;1.00;1.00;;;;;24.39;51.06;101138.31;5015427;28;45821;-82
2022/08/01 09:43:23;;;;;;;;;2.00;1.00;;;;;24.44;50.82;101138.59;5015371;28;45569;-83
2022/08/01 09:45:49;;;;;;;;;2.25;2.00;;;;;24.34;51.18;101116.63;5015298;28;45577;-84
2022/08/01 09:48:18;;;;;;;;;2.00;2.00;;;;;24.44;51.24;101143.97;5015218;28;45576;-83
2022/08/01 09:50:46;;;;;;;;;2.00;2.00;;;;;24.42;50.87;101145.97;5015352;28;45614;-81
2022/08/01 09:53:12;;;;;;;;;3.00;2.00;;;;;24.41;50.95;101153.19;5014910;28;45657;-81
2022/08/01 09:55:39;;;;;;;;;2.00;2.00;;;;;24.41;51.21;101153.19;5014994;28;45643;-82
2022/08/01 09:58:05;;;;;;;;;2.00;1.00;;;;;24.46;51.58;101155.31;5014876;28;46193;-81
2022/08/01 10:00:33;;;;;;;;;3.25;2.00;;;;;24.37;51.20;101126.94;5015166;28;45690;-83
2022/08/01 10:02:59;;;;;;;;;2.00;2.00;;;;;24.41;51.23;101128.25;5015073;28;45539;-80
2022/08/01 10:05:35;;;;;;;;;2.00;2.00;;;;;24.50;50.92;101145.91;5014872;28;46593;-80
2022/08/01 10:08:03;;;;;;;;;1.75;1.75;;;;;24.49;51.28;101149.59;4996771;28;47767;-84
2022/08/01 10:10:31;;;;;;;;;1.00;1.00;;;;;24.50;50.83;101148.56;5014934;28;45614;-82
2022/08/01 10:12:58;;;;;;;;;1.00;1.00;;;;;24.48;51.05;101154.09;4980253;28;45545;-82
2022/08/01 10:15:25;;;;;;;;;2.25;2.25;;;;;24.52;50.83;101149.19;5014777;28;45579;-81
2022/08/01 10:18:00;;;;;;;;;2.00;2.00;;;;;24.48;50.83;101134.53;5015057;28;45985;-81
2022/08/01 10:20:30;;;;;;;;;2.25;2.25;;;;;24.60;51.05;101151.78;5014923;28;45647;-81
2022/08/01 10:22:59;;;;;;;;;2.25;2.25;;;;;24.65;50.74;101144.84;5015383;28;45654;-81
2022/08/01 10:25:28;;;;;;;;;2.00;2.00;;;;;24.67;50.73;101137.44;4996710;28;47458;-82
2022/08/01 10:31:17;;;;;;;;;3.00;2.75;;;;;24.97;50.10;101150.81;5015119;28;45727;-82
2022/08/01 10:33:44;;;;;;;;;3.00;3.00;;;;;25.12;50.06;101145.41;5015101;28;45531;-81
2022/08/01 10:36:10;;;;;;;;;4.00;3.50;;;;;25.17;49.54;101138.44;5014208;28;45404;-81
2022/08/01 10:38:36;;;;;;;;;3.00;3.00;;;;;25.31;49.75;101136.72;5014321;28;46120;-81
2022/08/01 10:41:04;;;;;;;;;4.75;3.00;;;;;25.38;49.41;101133.06;5014536;28;45505;-84
2022/08/01 10:43:30;;;;;;;;;3.00;2.50;;;;;25.42;49.27;101126.31;5014486;28;45620;-82
2022/08/01 10:45:56;;;;;;;;;2.75;2.75;;;;;25.47;49.33;101126.56;5014623;28;45648;-81
2022/08/01 10:48:35;;;;;;;;;4.00;3.00;;;;;25.58;48.73;101140.50;5014372;28;45776;-79
2022/08/01 10:51:04;;;;;;;;;2.00;2.00;;;;;25.55;48.74;101151.59;4996371;28;45678;-82
2022/08/01 10:53:30;;;;;;;;;2.25;2.00;;;;;25.47;48.56;101134.63;5014438;28;45788;-83
2022/08/01 10:55:55;;;;;;;;;3.00;2.25;;;;;25.53;48.88;101145.59;5015362;28;45673;-84
2022/08/01 10:58:26;;;;;;;;;3.50;2.00;;;;;25.54;48.72;101137.34;5014559;28;46480;-83
2022/08/01 11:01:26;;;;;;;;;3.00;3.00;;;;;25.54;48.71;101140.00;4996433;28;45684;-85
2022/08/01 11:03:55;;;;;;;;;3.00;3.00;;;;;25.53;48.61;101133.00;5015015;28;45582;-83
2022/08/01 11:06:25;;;;;;;;;3.00;3.00;;;;;25.53;48.69;101133.00;5019498;28;45738;-82
2022/08/01 11:08:55;;;;;;;;;3.00;3.00;;;;;25.55;48.61;101143.53;5023683;28;45849;-81
2022/08/01 11:11:21;;;;;;;;;3.00;3.00;;;;;25.54;48.33;101131.97;5021311;28;45660;-83
2022/08/01 11:14:11;;;;;;;;;4.00;4.00;;;;;25.66;48.74;101130.44;5017414;28;45588;-82
2022/08/01 11:16:38;;;;;;;;;3.00;3.00;;;;;25.65;48.24;101123.41;4996851;28;46585;-83
2022/08/01 11:19:06;;;;;;;;;3.75;3.75;;;;;25.70;48.13;101131.72;5015044;28;47232;-84
2022/08/01 11:21:53;;;;;;;;;3.25;3.00;;;;;25.82;48.04;101140.06;5015761;28;45581;-83
2022/08/01 11:24:46;;;;;;;;;4.75;4.00;;;;;25.87;47.83;101137.63;5015760;28;45482;-84
2022/08/01 11:27:25;;;;;;;;;3.00;3.00;;;;;25.90;47.69;101129.19;5016405;28;45505;-81
2022/08/01 11:30:09;;;;;;;;;4.25;4.00;;;;;25.97;47.48;101138.09;4998195;28;47452;-82
2022/08/01 11:32:55;;;;;;;;;2.00;2.00;;;;;25.95;47.24;101128.59;5016078;28;45707;-81
2022/08/01 11:35:23;;;;;;;;;2.75;2.00;;;;;26.01;47.25;101125.13;5015967;28;45563;-83
2022/08/01 11:37:51;;;;;;;;;2.50;2.50;;;;;26.06;47.69;101128.88;5015872;28;45693;-83
2022/08/01 11:40:25;;;;;;;;;3.75;3.25;;;;;26.10;47.85;101123.94;4997484;28;47392;-80
2022/08/01 11:43:12;;;;;;;;;5.25;5.00;;;;;26.21;47.40;101140.34;5014253;28;45711;-81
2022/08/01 11:45:55;;;;;;;;;4.00;4.00;;;;;26.25;46.69;101127.34;5014281;28;45500;-84
2022/08/01 11:48:26;;;;;;;;;3.75;3.75;;;;;26.14;47.00;101114.44;5014181;28;46590;-82
2022/08/01 11:50:56;;;;;;;;;4.00;4.00;;;;;26.22;46.86;101125.03;5014278;28;45722;-80
2022/08/01 11:53:22;;;;;;;;;3.00;3.00;;;;;26.23;47.08;101124.88;5013772;28;45793;-83
2022/08/01 11:55:53;;;;;;;;;3.50;2.50;;;;;26.21;47.19;101108.09;5013821;28;45500;-83
2022/08/01 11:58:23;;;;;;;;;3.25;3.00;;;;;26.29;47.03;101101.75;5013785;28;45830;-82
2022/08/01 12:00:53;;;;;;;;;4.50;3.75;;;;;26.43;46.78;101113.41;5014116;28;46442;-81
2022/08/01 12:03:27;;;;;;;;;3.25;3.25;;;;;26.41;46.37;101100.16;5013355;28;45732;-81
2022/08/01 12:05:54;;;;;;;;;3.25;3.25;;;;;26.52;46.14;101115.69;5013960;28;45604;-81
2022/08/01 12:08:30;;;;;;;;;3.25;3.00;;;;;26.52;46.39;101104.13;5013650;28;46684;-82
2022/08/01 12:10:56;;;;;;;;;3.25;3.25;;;;;26.50;45.87;101098.97;5013281;28;46293;-83
2022/08/01 12:13:22;;;;;;;;;2.75;2.75;;;;;26.48;45.89;101097.50;5013599;28;45579;-81
2022/08/01 12:15:49;;;;;;;;;3.00;3.00;;;;;26.51;45.58;101095.22;5016524;28;45548;-81
2022/08/01 12:18:15;;;;;;;;;4.00;4.00;;;;;26.52;45.69;101099.56;5017070;28;46457;-81
2022/08/01 12:20:44;;;;;;;;;3.00;3.00;;;;;26.55;45.79;101096.50;5017170;28;45622;-82
2022/08/01 12:23:13;;;;;;;;;3.25;3.00;;;;;26.53;45.63;101109.31;5016337;28;45670;-79
2022/08/01 12:25:40;;;;;;;;;3.75;3.75;;;;;26.56;45.43;101094.66;5017261;28;45518;-78
2022/08/01 12:28:07;;;;;;;;;4.00;4.00;;;;;26.56;45.24;101094.66;5016860;28;45664;-84
2022/08/01 12:30:35;;;;;;;;;4.25;3.75;;;;;26.56;45.68;101097.34;5017003;28;45643;-77